Chesilhurst, New Jersey
Current Conditions -  °F | °C
As of 10:54 AM on Sunday 21 Dec 2014 (Local Time) from KVAY Reporting Station
Clear Clear  
Wind Chill: 30°   Ceiling: Unl
Heat Index: 37°   Visibility: 10mi
Dew Point: 22°   Wind: 10mph
Humidity: 54%   Direction: 300°WNW
Pressure: 30.33"   Gusts: NA
Location:  39.719°N, 74.8185°W
Report Text: KVAY 211554Z AUTO 30009KT 280V340 10SM CLR 03/M06 A3033 RMK AO2 SLP272 T00281056
Loading
Personal Weather Stations






























Interactive Weather Map New forecast layout! Learn more

10-Day Weather Forecast

Advertisements
Track Severe Weather on mobile